Terminal Aerodrome Forecast
Issued by NWS

Home | Current Version | Previous Version | Text Only | Print | Product List | Glossary On
Versions: 1 2 3 4 5 6 7 8 9 10 11 12 13 14 15 16 17 18 19 20 21 22 23 24 25 26 27 28 29 30 31 32 33 34 35 36 37 38 39 40 41 42 43 44 45 46 47 48 49 50
000
FTUS43 KMKX 201734
TAFENW
TAF
KENW 201734Z 2018/2118 29008KT P6SM BKN035
     FM202100 11006KT P6SM BKN035
     FM202300 12005KT P6SM SCT035 BKN250
     FM210800 14004KT 5SM TSRA BR BKN050CB
     FM211000 14004KT 3SM TSRA BR SCT025 OVC040CB
     FM211200 12005KT P6SM VCTS BKN030CB
     FM211500 15008KT P6SM VCTS SCT030 OVC060CB=

USA.gov is the U.S. government's official web portal to all federal, state and local government web resources and services.